Time;durP1;ratioP1;P1;durP2;ratioP2;P2;SDS_P1;SDS_P2;PMS_P1;PMS_P2;Temp;Humidity;BMP_temperature;BMP_pressure;BME280_temperature;BME280_humidity;BME280_pressure;Samples;Min_cycle;Max_cycle;Signal;HPM_P1;HPM_P2
2022/05/23 00:02:18;;;;;;;18.57;7.42;;;;;;;11.84;77.48;100102.50;1784273;80;21053;-59
2022/05/23 00:04:47;;;;;;;21.62;10.32;;;;;;;11.85;77.60;100106.82;1784482;80;21054;-58
2022/05/23 00:07:28;;;;;;;32.15;13.85;;;;;;;11.84;77.55;100109.09;1784434;80;21505;-58
2022/05/23 00:09:57;;;;;;;23.05;11.73;;;;;;;11.84;77.37;100112.17;1784421;80;21120;-58
2022/05/23 00:12:26;;;;;;;23.75;10.20;;;;;;;11.81;77.34;100113.20;1784400;80;21058;-58
2022/05/23 00:14:55;;;;;;;25.55;10.13;;;;;;;11.78;77.35;100110.72;1784421;80;21066;-58
2022/05/23 00:17:24;;;;;;;19.90;10.63;;;;;;;11.77;77.57;100109.03;1784353;80;21124;-58
2022/05/23 00:19:53;;;;;;;15.53;7.50;;;;;;;11.75;77.60;100112.23;1760126;81;21100;-59
2022/05/23 00:22:22;;;;;;;8.85;4.83;;;;;;;11.74;77.83;100118.42;1760217;81;21653;-59
2022/05/23 00:24:51;;;;;;;8.43;3.95;;;;;;;11.70;78.26;100119.05;1760187;81;21145;-59
2022/05/23 00:27:23;;;;;;;7.92;3.67;;;;;;;11.69;78.28;100119.13;1760030;81;21537;-59
2022/05/23 00:29:53;;;;;;;15.78;4.65;;;;;;;11.67;78.41;100115.25;1760264;81;21131;-59
2022/05/23 00:35:19;;;;;;;36.00;16.12;;;;;;;11.63;78.45;100108.92;1760336;81;21502;-59
2022/05/23 00:37:51;;;;;;;60.33;25.48;;;;;;;11.63;78.42;100106.28;1759953;81;21569;-59
2022/05/23 00:40:32;;;;;;;36.88;15.78;;;;;;;11.63;78.72;100107.60;1760258;81;21039;-58
2022/05/23 00:43:15;;;;;;;14.50;7.47;;;;;;;11.64;78.71;100104.02;1760046;81;21075;-59
2022/05/23 00:45:52;;;;;;;16.10;7.05;;;;;;;11.61;78.56;100097.61;1760103;81;21071;-58
2022/05/23 00:48:27;;;;;;;6.60;3.92;;;;;;;11.57;78.49;100100.88;1760119;81;21542;-58
2022/05/23 00:50:59;;;;;;;7.65;2.62;;;;;;;11.52;78.28;100101.58;1760135;81;21111;-57
2022/05/23 00:53:31;;;;;;;9.03;4.15;;;;;;;11.48;78.31;100100.88;1760134;81;21160;-58
2022/05/23 00:56:00;;;;;;;11.60;5.20;;;;;;;11.45;78.50;100095.77;1759292;81;21067;-55
2022/05/23 00:58:32;;;;;;;8.73;6.20;;;;;;;11.43;79.02;100104.22;1760135;81;21613;-56
2022/05/23 01:01:04;;;;;;;10.40;6.97;;;;;;;11.41;78.96;100108.73;1759596;81;21630;-59
2022/05/23 01:03:33;;;;;;;12.73;7.80;;;;;;;11.39;79.44;100098.27;1760210;81;21549;-59
2022/05/23 01:06:01;;;;;;;16.65;7.35;;;;;;;11.41;79.47;100103.45;1760156;81;21131;-59
2022/05/23 01:08:30;;;;;;;19.20;8.38;;;;;;;11.40;79.65;100099.14;1760148;81;21091;-60
2022/05/23 01:10:58;;;;;;;10.72;8.33;;;;;;;11.42;79.68;100106.94;1760067;81;21173;-62
2022/05/23 01:13:27;;;;;;;13.80;8.68;;;;;;;11.39;79.53;100102.69;1760108;81;21176;-61
2022/05/23 01:15:56;;;;;;;9.73;7.30;;;;;;;11.38;79.57;100110.23;1760103;81;21107;-60
2022/05/23 01:18:26;;;;;;;10.32;6.95;;;;;;;11.36;79.62;100100.20;1764820;79;21094;-58
2022/05/23 01:21:04;;;;;;;11.48;6.80;;;;;;;11.36;79.78;100113.38;1803862;79;21092;-58
2022/05/23 01:23:52;;;;;;;11.35;7.05;;;;;;;11.35;79.67;100115.66;1803828;79;21198;-59
2022/05/23 01:26:25;;;;;;;17.25;11.12;;;;;;;11.34;79.74;100111.30;1803746;79;21105;-58
2022/05/23 01:28:56;;;;;;;15.98;11.48;;;;;;;11.33;80.05;100112.25;1855087;77;21042;-58
2022/05/23 01:31:32;;;;;;;30.88;17.17;;;;;;;11.34;80.03;100111.30;1853710;77;21094;-59
2022/05/23 01:34:02;;;;;;;25.65;16.85;;;;;;;11.33;80.53;100116.20;1854583;77;21392;-60
2022/05/23 01:36:31;;;;;;;20.05;11.83;;;;;;;11.31;80.54;100110.16;1854944;77;21120;-60
2022/05/23 01:39:00;;;;;;;19.05;10.75;;;;;;;11.30;80.78;100118.52;1855027;77;21069;-61
2022/05/23 01:41:29;;;;;;;15.23;8.13;;;;;;;11.31;80.87;100114.12;1854953;77;21054;-61
2022/05/23 01:43:59;;;;;;;11.97;8.38;;;;;;;11.30;80.88;100117.67;1817469;79;21507;-58
2022/05/23 01:46:29;;;;;;;19.77;11.90;;;;;;;11.28;80.90;100116.42;1786771;80;21144;-59
2022/05/23 01:49:06;;;;;;;12.37;9.03;;;;;;;11.30;80.84;100117.67;1802352;79;21076;-59
2022/05/23 01:51:35;;;;;;;14.35;8.15;;;;;;;11.30;81.11;100116.35;1804002;79;21532;-59
2022/05/23 01:54:04;;;;;;;13.75;5.95;;;;;;;11.28;80.92;100119.06;1803911;79;21081;-58
2022/05/23 01:56:33;;;;;;;10.18;5.35;;;;;;;11.27;80.96;100121.33;1803851;79;21132;-58
2022/05/23 02:01:51;;;;;;;11.48;5.08;;;;;;;11.25;81.12;100122.31;1803739;79;21564;-58
2022/05/23 02:04:24;;;;;;;10.35;5.30;;;;;;;11.23;81.14;100126.34;1799217;79;21068;-58
2022/05/23 02:06:53;;;;;;;7.92;5.15;;;;;;;11.21;81.36;100124.25;1803890;79;21118;-58
2022/05/23 02:09:29;;;;;;;10.03;4.67;;;;;;;11.20;81.38;100125.20;1803198;79;21084;-58
2022/05/23 02:12:08;;;;;;;10.65;4.75;;;;;;;11.19;81.83;100126.13;1795737;79;21058;-58
2022/05/23 02:14:37;;;;;;;9.58;3.98;;;;;;;11.22;82.53;100130.41;1803950;79;21057;-58
2022/05/23 02:17:11;;;;;;;7.03;3.85;;;;;;;11.23;82.53;100124.19;1803085;79;21096;-58
2022/05/23 02:19:40;;;;;;;6.87;4.22;;;;;;;11.24;82.41;100128.53;1800933;79;21106;-59
2022/05/23 02:22:13;;;;;;;;;;;;;;;11.31;82.45;100125.97;1797090;80;21121;-58
2022/05/23 02:24:42;;;;;;;8.78;4.30;;;;;;;11.43;82.45;100127.11;1794720;80;20115;-58
2022/05/23 02:27:11;;;;;;;8.45;4.12;;;;;;;11.56;82.37;100131.67;1794792;80;21508;-58
2022/05/23 02:29:42;;;;;;;7.72;3.90;;;;;;;11.70;82.49;100130.08;1794546;80;21097;-58
2022/05/23 02:32:11;;;;;;;4.78;3.45;;;;;;;11.81;82.53;100132.98;1794820;80;21525;-58
2022/05/23 02:34:41;;;;;;;6.85;4.28;;;;;;;11.94;82.42;100130.57;1794605;80;21149;-59
2022/05/23 02:37:10;;;;;;;6.10;4.78;;;;;;;12.07;82.28;100134.71;1794723;80;21550;-59
2022/05/23 02:39:40;;;;;;;7.75;4.58;;;;;;;12.21;82.18;100136.57;1793355;80;21520;-58
2022/05/23 02:42:10;;;;;;;7.80;4.67;;;;;;;12.34;82.10;100141.09;1794723;80;21079;-58
2022/05/23 02:44:39;;;;;;;5.75;3.50;;;;;;;12.46;81.82;100136.06;1794609;80;21509;-58
2022/05/23 02:47:09;;;;;;;9.55;3.80;;;;;;;12.55;81.40;100145.63;1794580;80;21169;-58
2022/05/23 02:49:39;;;;;;;5.20;4.00;;;;;;;12.63;80.75;100141.22;1794696;80;21058;-58
2022/05/23 02:52:10;;;;;;;5.95;3.33;;;;;;;12.72;80.31;100145.98;1794626;80;21061;-58
2022/05/23 02:54:43;;;;;;;13.18;3.65;;;;;;;12.82;79.97;100145.45;1793912;80;21152;-58
2022/05/23 02:57:12;;;;;;;7.45;3.72;;;;;;;12.95;79.71;100146.46;1794690;80;21209;-60
2022/05/23 02:59:40;;;;;;;5.80;3.62;;;;;;;13.13;79.25;100150.67;1794588;80;21162;-59
2022/05/23 03:04:56;;;;;;;8.83;3.45;;;;;;;13.64;77.61;100152.09;1728702;83;21121;-59
2022/05/23 03:07:25;;;;;;;7.47;4.45;;;;;;;13.70;77.55;100154.34;1772718;80;21094;-63
2022/05/23 03:10:02;;;;;;;15.20;9.15;;;;;;;13.75;77.85;100150.95;1794446;78;21126;-59
2022/05/23 03:12:31;;;;;;;23.70;17.25;;;;;;;13.81;77.74;100154.53;1794599;80;21513;-60
2022/05/23 03:15:00;;;;;;;29.95;21.70;;;;;;;13.76;77.05;100157.09;1817168;79;21049;-60
2022/05/23 03:17:28;;;;;;;21.02;13.80;;;;;;;13.71;76.72;100156.06;1817490;79;21046;-57
2022/05/23 03:19:57;;;;;;;11.88;10.38;;;;;;;13.78;76.81;100152.09;1817466;78;21042;-58
2022/05/23 03:28:02;;;;;;;6.15;3.80;;;;;;;14.09;75.97;100166.05;1817649;79;21042;-60
2022/05/23 03:30:32;;;;;;;31.95;23.65;;;;;;;13.96;75.08;100166.44;1817522;79;21046;-60
2022/05/23 03:33:01;;;;;;;39.98;27.07;;;;;;;13.78;74.37;100167.97;1817429;78;21041;-59
2022/05/23 03:35:32;;;;;;;28.77;18.02;;;;;;;13.67;74.08;100163.81;1817583;79;21077;-59
2022/05/23 03:38:02;;;;;;;15.93;8.93;;;;;;;13.58;73.92;100167.02;1817717;79;21111;-59
2022/05/23 03:40:34;;;;;;;23.92;10.95;;;;;;;13.44;74.03;100179.26;1817633;78;21572;-59
2022/05/23 03:43:03;;;;;;;19.67;9.65;;;;;;;13.42;74.07;100181.15;1817703;79;21480;-59
2022/05/23 03:45:33;;;;;;;14.87;7.80;;;;;;;13.46;74.26;100181.38;1817508;78;21591;-60
2022/05/23 03:48:05;;;;;;;13.15;5.75;;;;;;;13.43;74.55;100184.67;1817984;79;21579;-59
2022/05/23 03:50:35;;;;;;;11.88;5.90;;;;;;;13.45;74.65;100176.16;1817696;79;21041;-59
2022/05/23 03:53:04;;;;;;;5.85;3.27;;;;;;;13.62;74.80;100176.47;1817571;79;21476;-59
2022/05/23 03:55:35;;;;;;;10.40;4.80;;;;;;;13.82;74.85;100177.41;1817569;79;21104;-60
2022/05/23 03:58:17;;;;;;;14.30;6.72;;;;;;;14.06;74.81;100182.98;1817473;78;21104;-60
2022/05/23 04:00:52;;;;;;;17.82;6.87;;;;;;;14.16;74.43;100183.25;1818068;78;21121;-60
2022/05/23 04:03:20;;;;;;;14.83;7.35;;;;;;;14.23;74.00;100184.56;1817347;78;21073;-60
2022/05/23 04:05:49;;;;;;;13.35;7.45;;;;;;;14.47;73.63;100183.95;1817640;79;21074;-60
2022/05/23 04:08:19;;;;;;;9.45;6.12;;;;;;;14.73;73.12;100179.65;1817169;78;21097;-60
2022/05/23 04:10:49;;;;;;;10.53;5.97;;;;;;;14.99;72.47;100183.71;1817673;78;21102;-60
2022/05/23 04:13:18;;;;;;;13.45;8.00;;;;;;;15.29;71.90;100179.50;1817610;79;21026;-60
2022/05/23 04:15:46;;;;;;;10.78;6.58;;;;;;;15.61;71.39;100182.59;1817625;79;21065;-60
2022/05/23 04:18:16;;;;;;;11.93;7.35;;;;;;;16.08;71.12;100176.75;1817674;79;21517;-60
2022/05/23 04:20:45;;;;;;;9.00;7.83;;;;;;;16.51;70.60;100185.15;1819327;77;21097;-59
2022/05/23 04:23:16;;;;;;;10.08;7.12;;;;;;;16.97;70.23;100183.12;1828899;78;21515;-59
2022/05/23 04:25:49;;;;;;;6.97;5.55;;;;;;;17.47;69.85;100185.57;1829471;78;21171;-59
2022/05/23 04:28:20;;;;;;;10.28;4.60;;;;;;;17.90;69.28;100191.58;1829446;78;21080;-59
2022/05/23 04:30:49;;;;;;;6.47;3.90;;;;;;;18.31;68.69;100190.13;1829455;78;21106;-59
2022/05/23 04:36:06;;;;;;;5.47;2.33;;;;;;;18.95;65.84;100190.35;1829389;78;21087;-59
2022/05/23 04:38:36;;;;;;;4.15;2.33;;;;;;;19.02;63.89;100186.20;1829490;78;21531;-59
2022/05/23 04:41:06;;;;;;;4.15;2.72;;;;;;;19.25;64.02;100182.92;1829421;78;21098;-59
2022/05/23 04:43:37;;;;;;;3.65;1.70;;;;;;;19.42;62.52;100184.16;1828880;78;21076;-62
2022/05/23 04:46:05;;;;;;;6.70;1.80;;;;;;;19.55;61.42;100180.83;1829487;78;21168;-59
2022/05/23 04:51:36;;;;;;;1.65;1.22;;;;;;;19.55;59.04;100176.82;1829310;78;21069;-59
2022/05/23 04:54:05;;;;;;;5.62;1.20;;;;;;;19.55;57.80;100182.16;1813928;78;21637;-62
2022/05/23 04:56:36;;;;;;;1.60;1.27;;;;;;;19.82;58.75;100174.09;1800742;78;21563;-61
2022/05/23 04:59:06;;;;;;;4.15;1.10;;;;;;;20.16;58.52;100172.47;1800122;78;21085;-62
2022/05/23 05:01:35;;;;;;;1.22;1.00;;;;;;;20.29;58.24;100174.89;1829367;78;21583;-59
2022/05/23 05:04:04;;;;;;;2.12;0.98;;;;;;;20.59;58.61;100183.36;1829375;78;21184;-59
2022/05/23 05:06:34;;;;;;;1.80;1.05;;;;;;;21.10;58.56;100178.28;1829381;78;21124;-59
2022/05/23 05:09:04;;;;;;;4.15;0.70;;;;;;;21.54;58.20;100185.38;1829457;77;21104;-62
2022/05/23 05:11:33;;;;;;;1.45;0.70;;;;;;;21.78;55.75;100173.30;1829413;78;21089;-61
2022/05/23 05:14:08;;;;;;;1.17;0.70;;;;;;;21.94;55.75;100172.19;1826773;78;21069;-62
2022/05/23 05:16:38;;;;;;;1.87;0.80;;;;;;;22.27;55.89;100178.00;1829308;78;21076;-61
2022/05/23 05:19:09;;;;;;;1.12;0.62;;;;;;;22.70;55.56;100179.64;1829186;78;21106;-60
2022/05/23 05:21:57;;;;;;;2.02;0.90;;;;;;;23.04;54.15;100179.84;1825186;77;21159;-61
2022/05/23 05:24:44;;;;;;;1.20;0.93;;;;;;;22.98;53.44;100184.45;1817646;79;21073;-59
2022/05/23 05:27:29;;;;;;;0.98;0.70;;;;;;;23.07;53.08;100184.05;1817638;78;21176;-62
2022/05/23 05:29:59;;;;;;;1.17;0.80;;;;;;;23.56;52.52;100186.28;1817625;78;21042;-66
2022/05/23 05:32:36;;;;;;;1.47;0.57;;;;;;;23.98;52.51;100181.52;1815408;78;21084;-65
2022/05/23 05:35:07;;;;;;;0.70;0.60;;;;;;;24.27;51.01;100184.67;1817664;78;21101;-64
2022/05/23 05:37:45;;;;;;;1.15;0.90;;;;;;;24.09;50.48;100185.27;1817550;79;21144;-64
2022/05/23 05:40:15;;;;;;;1.52;0.90;;;;;;;24.35;50.43;100193.27;1817233;78;21194;-64
2022/05/23 05:42:49;;;;;;;0.75;0.60;;;;;;;24.63;49.99;100191.19;1817841;79;21119;-65
2022/05/23 05:45:22;;;;;;;0.70;0.70;;;;;;;25.10;49.76;100184.86;1817809;78;21144;-65
2022/05/23 05:47:52;;;;;;;0.78;0.70;;;;;;;25.27;48.19;100185.24;1817719;79;21539;-65
2022/05/23 05:50:27;;;;;;;1.47;0.70;;;;;;;25.35;46.82;100187.91;1817514;78;21116;-67
2022/05/23 05:53:00;;;;;;;0.85;0.70;;;;;;;25.62;45.83;100181.84;1816032;79;21081;-65
2022/05/23 05:55:30;;;;;;;;;;;;;;;25.13;45.66;100180.48;1820416;78;21038;-65
2022/05/23 05:58:00;;;;;;;1.22;0.75;;;;;;;24.63;46.46;100183.12;1817565;78;20119;-65
2022/05/23 06:00:29;;;;;;;1.12;0.93;;;;;;;23.83;46.22;100185.28;1817526;78;21050;-62
2022/05/23 06:02:59;;;;;;;1.10;0.82;;;;;;;23.04;46.10;100182.52;1817455;79;21097;-64
2022/05/23 06:11:23;;;;;;;5.05;0.80;;;;;;;22.26;45.67;100183.03;1817616;78;21081;-64
2022/05/23 06:13:41;;;;;;;5.17;0.80;;;;;;;22.03;47.77;100185.72;1817293;78;21139;-64
2022/05/23 06:16:11;;;;;;;3.55;0.88;;;;;;;22.90;47.29;100181.68;1817510;78;21143;-64
2022/05/23 06:18:42;;;;;;;0.70;0.70;;;;;;;23.73;46.90;100185.38;1817863;78;21104;-61
2022/05/23 06:21:12;;;;;;;0.78;0.70;;;;;;;24.03;45.52;100170.62;1817535;79;21496;-61
2022/05/23 06:23:42;;;;;;;0.80;0.68;;;;;;;24.14;44.68;100174.02;1826802;78;21093;-63
2022/05/23 06:26:17;;;;;;;4.67;0.90;;;;;;;23.77;44.88;100178.67;1828808;78;21625;-59
2022/05/23 06:28:48;;;;;;;1.25;0.70;;;;;;;23.28;45.45;100185.91;1828835;78;21139;-59
2022/05/23 06:31:17;;;;;;;1.12;0.80;;;;;;;22.71;45.89;100184.86;1829338;78;21144;-59
2022/05/23 06:33:46;;;;;;;0.70;0.70;;;;;;;22.14;46.33;100186.86;1829363;78;21596;-58
2022/05/23 06:36:18;;;;;;;1.95;0.98;;;;;;;21.60;46.50;100186.63;1829106;77;21088;-62
2022/05/23 06:38:47;;;;;;;1.65;0.90;;;;;;;21.21;46.87;100184.83;1829479;78;21544;-62
2022/05/23 06:41:23;;;;;;;1.00;0.90;;;;;;;21.17;47.17;100191.46;1819358;78;21125;-62
2022/05/23 06:44:10;;;;;;;0.82;0.70;;;;;;;21.47;47.36;100186.08;1829360;78;21049;-64
2022/05/23 06:46:57;;;;;;;1.02;0.70;;;;;;;22.30;47.37;100192.46;1829326;78;21194;-62
2022/05/23 06:49:30;;;;;;;1.50;0.62;;;;;;;22.95;47.02;100191.47;1828662;78;21080;-60
2022/05/23 06:52:06;;;;;;;1.22;0.60;;;;;;;23.62;46.52;100181.10;1829404;78;21114;-60
2022/05/23 06:54:37;;;;;;;2.02;0.70;;;;;;;24.40;45.82;100184.70;1828802;78;21159;-60
2022/05/23 06:57:07;;;;;;;2.20;0.60;;;;;;;24.20;45.28;100182.29;1828773;78;21147;-63
2022/05/23 06:59:37;;;;;;;2.67;0.70;;;;;;;23.74;43.83;100178.14;1829390;78;21676;-62
2022/05/23 07:02:09;;;;;;;2.05;0.60;;;;;;;23.83;43.05;100180.77;1829605;78;21472;-62
2022/05/23 07:13:09;;;;;;;2.02;0.72;;;;;;;24.35;42.76;100181.16;1829300;78;21518;-60
2022/05/23 07:15:46;;;;;;;0.95;0.60;;;;;;;23.73;42.12;100177.31;1829241;78;21196;-62
2022/05/23 07:18:10;;;;;;;0.50;0.50;;;;;;;23.13;42.81;100173.54;1829290;78;21190;-62
2022/05/23 07:20:46;;;;;;;0.60;0.57;;;;;;;22.60;43.26;100184.25;1829277;78;21569;-62
2022/05/23 07:23:17;;;;;;;1.45;0.68;;;;;;;22.11;43.74;100181.31;1825601;77;21214;-62
2022/05/23 07:25:47;;;;;;;2.65;0.70;;;;;;;21.57;44.26;100187.75;1817540;78;21611;-61
2022/05/23 07:28:17;;;;;;;1.50;0.70;;;;;;;21.07;44.57;100190.60;1818088;78;21587;-60
2022/05/23 07:30:47;;;;;;;2.65;0.80;;;;;;;20.82;44.89;100191.52;1808165;79;21218;-63
2022/05/23 07:33:16;;;;;;;1.92;0.60;;;;;;;20.66;44.99;100191.22;1784756;79;21630;-60
2022/05/23 07:36:01;;;;;;;4.60;0.62;;;;;;;20.50;45.08;100185.52;1787899;79;21545;-59
2022/05/23 07:38:30;;;;;;;0.60;0.60;;;;;;;20.33;45.03;100191.05;1815370;79;21034;-58
2022/05/23 07:41:01;;;;;;;3.62;0.70;;;;;;;20.30;45.02;100200.16;1817296;78;21150;-57
2022/05/23 07:43:39;;;;;;;0.70;0.60;;;;;;;20.48;45.09;100192.34;1817651;78;21478;-60
2022/05/23 07:46:13;;;;;;;1.20;0.60;;;;;;;20.74;45.22;100198.05;1824028;78;21037;-60
2022/05/23 07:48:51;;;;;;;0.62;0.50;;;;;;;21.18;45.03;100187.78;1817546;78;21079;-60
2022/05/23 07:51:29;;;;;;;3.02;0.80;;;;;;;22.29;44.68;100184.05;1817460;79;21053;-59
2022/05/23 08:02:23;;;;;;;0.55;0.40;;;;;;;24.23;40.34;100195.39;1817530;79;21054;-59
2022/05/23 08:04:54;;;;;;;0.50;0.50;;;;;;;23.81;40.82;100190.84;1817766;78;21058;-62
2022/05/23 08:07:23;;;;;;;3.50;0.57;;;;;;;23.38;40.84;100194.38;1817432;78;21615;-63
2022/05/23 08:09:52;;;;;;;2.67;0.40;;;;;;;23.18;41.21;100197.23;1817454;79;21563;-63
2022/05/23 08:12:21;;;;;;;2.00;0.50;;;;;;;22.92;41.55;100187.73;1817451;78;21105;-63
2022/05/23 08:14:50;;;;;;;0.88;0.50;;;;;;;22.66;41.67;100191.17;1817465;78;21512;-63
2022/05/23 08:17:22;;;;;;;0.60;0.45;;;;;;;22.39;41.92;100189.86;1817683;78;21073;-63
2022/05/23 08:19:51;;;;;;;1.27;0.60;;;;;;;22.49;42.21;100186.64;1817386;78;21124;-63
2022/05/23 08:22:22;;;;;;;2.75;0.60;;;;;;;22.46;42.40;100188.27;1817177;78;21050;-59
2022/05/23 08:24:56;;;;;;;1.82;0.70;;;;;;;22.28;42.71;100187.75;1811246;77;21260;-67
2022/05/23 08:27:25;;;;;;;2.17;0.53;;;;;;;22.58;42.54;100189.76;1759727;81;21065;-66
2022/05/23 08:29:54;;;;;;;0.85;0.60;;;;;;;22.79;42.17;100178.72;1759812;81;21551;-61
2022/05/23 08:32:23;;;;;;;0.75;0.60;;;;;;;23.88;41.70;100182.48;1759616;81;21128;-62
2022/05/23 08:34:53;;;;;;;0.68;0.40;;;;;;;24.95;40.63;100174.73;1760178;80;21076;-60
2022/05/23 08:37:22;;;;;;;2.70;1.98;;;;;;;24.98;40.49;100186.53;1759561;81;21140;-65
2022/05/23 08:39:51;;;;;;;1.37;0.70;;;;;;;24.69;40.61;100189.69;1759597;81;21540;-63
2022/05/23 08:42:52;;;;;;;5.33;0.60;;;;;;;24.27;40.77;100186.02;1759688;81;21539;-62
2022/05/23 08:45:37;;;;;;;0.78;0.50;;;;;;;23.92;41.01;100194.24;1759524;80;21523;-63
2022/05/23 08:48:27;;;;;;;0.45;0.45;;;;;;;23.84;41.31;100190.50;1759666;81;21539;-64
2022/05/23 08:51:17;;;;;;;1.55;0.40;;;;;;;23.65;41.47;100190.71;1759785;81;21065;-61
2022/05/23 08:54:08;;;;;;;2.83;0.50;;;;;;;23.49;41.89;100192.27;1729978;81;21493;-61
2022/05/23 08:56:50;;;;;;;4.28;0.65;;;;;;;23.37;42.00;100190.85;1750014;81;21150;-61
2022/05/23 08:59:31;;;;;;;1.52;0.50;;;;;;;23.12;41.83;100186.61;1759687;81;21090;-62
2022/05/23 09:02:03;;;;;;;3.25;0.62;;;;;;;22.78;42.04;100197.66;1759604;81;21081;-60
2022/05/23 09:04:54;;;;;;;0.60;0.50;;;;;;;22.39;42.37;100194.75;1771052;80;21100;-60
2022/05/23 09:07:38;;;;;;;2.17;0.50;;;;;;;22.23;42.61;100192.67;1781045;80;21516;-62
2022/05/23 09:10:12;;;;;;;2.60;0.65;;;;;;;22.16;42.78;100199.11;1788282;80;21594;-62
2022/05/23 09:12:41;;;;;;;0.80;0.40;;;;;;;22.23;42.87;100197.20;1787198;79;21179;-62
2022/05/23 09:15:10;;;;;;;1.02;0.50;;;;;;;22.70;42.89;100198.42;1788328;80;21061;-62
2022/05/23 09:17:42;;;;;;;1.42;0.50;;;;;;;23.26;42.48;100194.62;1788329;80;21139;-62
2022/05/23 09:20:14;;;;;;;0.70;0.50;;;;;;;23.37;42.20;100196.23;1788170;80;21073;-62
2022/05/23 09:22:54;;;;;;;2.52;0.68;;;;;;;23.34;42.07;100196.53;1788184;79;21057;-62
2022/05/23 09:25:26;;;;;;;0.90;0.68;;;;;;;23.27;41.86;100198.98;1793257;78;21528;-62
2022/05/23 09:28:25;;;;;;;0.75;0.45;;;;;;;23.09;41.74;100192.31;1817542;79;21046;-62
2022/05/23 09:31:16;;;;;;;0.53;0.53;;;;;;;23.10;41.85;100189.11;1817641;78;21516;-62
2022/05/23 09:33:51;;;;;;;1.45;0.60;;;;;;;23.08;41.69;100186.58;1817450;79;21125;-62
2022/05/23 09:36:33;;;;;;;5.83;2.05;;;;;;;22.99;41.98;100182.10;1817638;78;21077;-62
2022/05/23 09:39:07;;;;;;;0.47;0.47;;;;;;;22.89;42.19;100186.72;1817620;78;21120;-62
2022/05/23 09:50:15;;;;;;;0.72;0.42;;;;;;;22.55;42.39;100200.78;1817430;79;21038;-62
2022/05/23 09:52:52;;;;;;;3.47;0.60;;;;;;;22.55;42.60;100208.83;1815684;79;21022;-62
2022/05/23 09:55:28;;;;;;;0.47;0.47;;;;;;;22.62;42.54;100207.23;1817544;78;21069;-63
2022/05/23 09:58:05;;;;;;;1.30;0.50;;;;;;;22.62;42.47;100212.59;1817546;78;21105;-62
2022/05/23 10:00:33;;;;;;;;;;;;;;;22.51;42.51;100208.28;1819282;78;21561;-62
2022/05/23 10:03:04;;;;;;;0.80;0.60;;;;;;;22.32;42.75;100203.88;1817605;79;20103;-62
2022/05/23 10:05:38;;;;;;;2.40;0.60;;;;;;;22.07;43.07;100200.00;1817685;78;21041;-62
2022/05/23 10:08:33;;;;;;;1.20;0.80;;;;;;;21.90;43.35;100215.02;1817611;78;21151;-62
2022/05/23 10:11:05;;;;;;;0.50;0.50;;;;;;;21.80;43.56;100208.87;1823860;78;21127;-62
2022/05/23 10:13:41;;;;;;;1.85;0.65;;;;;;;21.62;43.82;100205.25;1817725;78;21168;-62
2022/05/23 10:16:19;;;;;;;1.12;0.50;;;;;;;21.58;43.93;100208.20;1817753;78;21093;-62
2022/05/23 10:18:51;;;;;;;0.93;0.60;;;;;;;21.73;43.83;100202.39;1817592;78;21128;-62
2022/05/23 10:21:35;;;;;;;1.65;0.80;;;;;;;21.85;43.80;100206.56;1817437;79;21074;-63
2022/05/23 10:24:14;;;;;;;0.90;0.60;;;;;;;22.13;43.80;100199.44;1817617;79;21521;-62
2022/05/23 10:26:49;;;;;;;0.53;0.53;;;;;;;22.40;43.65;100203.63;1817629;78;21085;-62
2022/05/23 10:29:57;;;;;;;1.12;0.72;;;;;;;22.74;43.34;100200.66;1817738;78;21374;-62
2022/05/23 10:32:51;;;;;;;1.57;0.50;;;;;;;23.20;42.93;100199.28;1817515;79;21492;-62
2022/05/23 10:35:26;;;;;;;0.50;0.50;;;;;;;23.44;42.59;100205.35;1817576;79;21156;-62
2022/05/23 10:42:07;;;;;;;0.90;0.65;;;;;;;23.55;42.15;100202.05;1817529;79;21042;-63
2022/05/23 10:43:19;;;;;;;0.40;0.40;;;;;;;23.50;41.95;100199.34;1817616;79;21026;-62
2022/05/23 10:45:50;;;;;;;0.42;0.40;;;;;;;23.30;41.84;100200.53;1817367;78;21100;-62
2022/05/23 10:48:39;;;;;;;1.42;0.45;;;;;;;23.03;42.03;100200.92;1817153;78;21050;-62
2022/05/23 10:51:27;;;;;;;0.93;0.62;;;;;;;22.69;42.39;100198.93;1817723;79;21561;-62
2022/05/23 10:54:32;;;;;;;2.25;0.50;;;;;;;22.41;42.83;100202.63;1815314;78;21050;-62
2022/05/23 10:57:36;;;;;;;0.75;0.40;;;;;;;22.06;42.91;100196.13;1817444;79;21212;-59
2022/05/23 11:00:16;;;;;;;0.53;0.47;;;;;;;21.65;43.23;100202.26;1817687;79;21018;-59
2022/05/23 11:02:57;;;;;;;0.78;0.60;;;;;;;21.35;43.51;100196.08;1817424;78;21141;-60
2022/05/23 11:05:43;;;;;;;0.72;0.40;;;;;;;21.14;43.70;100201.10;1817524;78;21160;-59
2022/05/23 11:08:27;;;;;;;0.45;0.45;;;;;;;21.04;43.94;100204.77;1817537;78;21050;-62
2022/05/23 11:10:58;;;;;;;1.57;0.50;;;;;;;20.91;44.20;100203.70;1817655;78;21124;-61
2022/05/23 11:13:45;;;;;;;0.40;0.40;;;;;;;20.72;44.53;100210.72;1817390;78;21022;-63
2022/05/23 11:16:33;;;;;;;1.20;0.50;;;;;;;20.57;44.74;100210.73;1817647;79;21026;-61
2022/05/23 11:19:30;;;;;;;0.90;0.60;;;;;;;20.40;44.93;100217.09;1817676;78;21156;-61
2022/05/23 11:22:03;;;;;;;0.65;0.50;;;;;;;20.16;45.13;100214.77;1817083;78;21165;-61
2022/05/23 11:24:43;;;;;;;2.27;0.57;;;;;;;19.90;45.46;100219.71;1817524;79;21050;-61
2022/05/23 11:35:55;;;;;;;4.05;0.70;;;;;;;19.41;46.26;100223.87;1817508;79;21038;-61
2022/05/23 11:38:24;;;;;;;1.45;0.65;;;;;;;19.16;46.89;100236.58;1817522;79;21433;-61
2022/05/23 11:41:07;;;;;;;0.60;0.60;;;;;;;18.96;47.34;100241.38;1817436;79;21010;-61
2022/05/23 11:43:36;;;;;;;2.60;0.90;;;;;;;18.71;48.32;100247.37;1817569;79;21046;-61
2022/05/23 11:46:08;;;;;;;2.10;0.70;;;;;;;18.48;49.07;100248.74;1817531;79;21045;-60
2022/05/23 11:48:53;;;;;;;1.07;0.78;;;;;;;18.32;49.57;100249.11;1817746;79;21018;-61
2022/05/23 11:51:37;;;;;;;2.60;0.90;;;;;;;18.16;50.42;100251.78;1817467;79;21603;-59
2022/05/23 11:54:28;;;;;;;3.35;1.10;;;;;;;17.96;51.20;100259.50;1817845;79;21050;-59
2022/05/23 11:57:06;;;;;;;2.52;0.95;;;;;;;17.68;52.47;100257.59;1817517;79;21548;-61
2022/05/23 11:59:38;;;;;;;1.32;1.00;;;;;;;17.48;52.63;100257.78;1817571;79;21010;-61
2022/05/23 12:02:12;;;;;;;1.87;0.95;;;;;;;17.39;52.93;100266.45;1817561;79;21042;-61
2022/05/23 12:04:55;;;;;;;2.52;1.00;;;;;;;17.26;53.60;100261.70;1817578;79;21018;-61
2022/05/23 12:07:45;;;;;;;1.57;1.02;;;;;;;17.13;54.45;100265.75;1817567;79;21132;-61
2022/05/23 12:10:33;;;;;;;0.88;0.70;;;;;;;17.13;54.48;100265.75;1817635;79;21038;-61
2022/05/23 12:13:13;;;;;;;1.37;0.80;;;;;;;17.07;54.81;100268.88;1816949;78;21136;-61
2022/05/23 12:15:47;;;;;;;1.65;0.95;;;;;;;17.03;55.23;100262.93;1817743;79;21065;-61
2022/05/23 12:18:26;;;;;;;3.37;1.10;;;;;;;17.03;55.82;100266.08;1817507;78;22387;-61
2022/05/23 12:20:58;;;;;;;2.62;0.95;;;;;;;17.12;55.74;100264.06;1817672;78;21151;-61
2022/05/23 12:23:44;;;;;;;1.65;0.90;;;;;;;17.15;55.79;100263.36;1817829;79;21054;-61
2022/05/23 12:26:16;;;;;;;1.00;0.80;;;;;;;17.14;56.25;100259.48;1817278;77;21053;-61
2022/05/23 12:29:22;;;;;;;1.12;0.90;;;;;;;17.13;56.38;100249.33;1829307;78;21603;-61
2022/05/23 12:32:09;;;;;;;0.93;0.70;;;;;;;17.20;56.87;100257.69;1829409;78;21496;-61
2022/05/23 12:34:44;;;;;;;0.98;0.62;;;;;;;17.35;56.81;100256.55;1809800;78;21049;-62
2022/05/23 12:37:21;;;;;;;1.72;0.90;;;;;;;17.53;56.59;100258.78;1828532;78;21533;-61
2022/05/23 12:40:11;;;;;;;1.32;0.80;;;;;;;17.69;56.45;100254.47;1828994;78;21524;-61
2022/05/23 12:43:01;;;;;;;4.92;0.72;;;;;;;17.80;56.49;100258.95;1829391;78;21293;-61
2022/05/23 12:45:59;;;;;;;1.65;0.90;;;;;;;17.91;56.40;100256.37;1829502;78;21187;-61
2022/05/23 12:49:00;;;;;;;2.22;1.10;;;;;;;18.11;56.08;100254.33;1829169;78;21528;-61
2022/05/23 12:51:37;;;;;;;1.07;0.88;;;;;;;18.30;56.09;100258.20;1829402;78;21484;-61
2022/05/23 12:54:30;;;;;;;3.30;0.85;;;;;;;18.48;55.79;100258.07;1829127;78;21081;-61
2022/05/23 12:57:05;;;;;;;0.88;0.55;;;;;;;18.61;55.57;100255.27;1829399;78;21132;-61
2022/05/23 12:59:55;;;;;;;1.60;0.80;;;;;;;19.02;54.93;100260.91;1829403;78;21546;-61
2022/05/23 13:02:35;;;;;;;1.77;0.75;;;;;;;19.30;54.57;100258.13;1829385;78;21087;-61